createdAt,value
2019-04-30T00:01:48.622Z,11.30
2019-04-30T00:04:22.604Z,11.30
2019-04-30T00:06:52.799Z,11.30
2019-04-30T00:09:25.053Z,11.20
2019-04-30T00:12:00.955Z,11.10
2019-04-30T00:14:36.834Z,11.10
2019-04-30T00:17:02.703Z,11.10
2019-04-30T00:19:42.570Z,11.00
2019-04-30T00:22:12.905Z,11.00
2019-04-30T00:24:58.894Z,11.10
2019-04-30T00:27:32.187Z,11.10
2019-04-30T00:30:07.336Z,11.10
2019-04-30T00:32:39.356Z,11.10
2019-04-30T00:35:11.392Z,11.10
2019-04-30T00:37:40.866Z,11.20
2019-04-30T00:40:11.579Z,11.20
2019-04-30T00:42:41.836Z,11.20
2019-04-30T00:45:15.329Z,11.30
2019-04-30T00:47:47.902Z,11.30
2019-04-30T00:50:17.240Z,11.30
2019-04-30T00:52:47.442Z,11.20
2019-04-30T00:55:17.634Z,11.20
2019-04-30T00:57:47.769Z,11.10
2019-04-30T01:00:25.075Z,11.10
2019-04-30T01:03:08.134Z,11.10
2019-04-30T01:05:35.257Z,11.10
2019-04-30T01:08:07.102Z,11.10
2019-04-30T01:10:37.549Z,11.10
2019-04-30T01:13:11.787Z,11.10
2019-04-30T01:15:44.073Z,11.10
2019-04-30T01:18:13.390Z,11.10
2019-04-30T01:20:45.089Z,11.00
2019-04-30T01:23:16.722Z,11.00
2019-04-30T01:25:50.003Z,11.00
2019-04-30T01:28:22.854Z,11.00
2019-04-30T01:30:53.856Z,11.00
2019-04-30T01:33:23.686Z,11.00
2019-04-30T01:35:55.419Z,11.00
2019-04-30T01:38:25.568Z,11.00
2019-04-30T01:40:55.770Z,11.00
2019-04-30T01:43:31.591Z,11.00
2019-04-30T01:48:48.632Z,10.90
2019-04-30T01:51:21.801Z,10.90
2019-04-30T01:53:50.910Z,10.90
2019-04-30T01:56:31.712Z,10.90
2019-04-30T01:59:05.130Z,10.90
2019-04-30T02:01:39.651Z,10.90
2019-04-30T02:04:09.885Z,10.90
2019-04-30T02:06:40.109Z,10.80
2019-04-30T02:09:10.298Z,10.80
2019-04-30T02:11:40.431Z,10.80
2019-04-30T02:14:10.683Z,10.80
2019-04-30T02:16:40.980Z,10.80
2019-04-30T02:19:11.207Z,10.80
2019-04-30T02:21:41.434Z,10.80
2019-04-30T02:24:11.515Z,10.80
2019-04-30T02:26:41.714Z,10.80
2019-04-30T02:29:12.005Z,10.80
2019-04-30T02:31:42.129Z,10.70
2019-04-30T02:34:13.920Z,10.60
2019-04-30T02:36:53.434Z,10.60
2019-04-30T02:39:23.638Z,10.50
2019-04-30T02:41:56.092Z,10.50
2019-04-30T02:44:29.201Z,10.50
2019-04-30T02:47:00.503Z,10.50
2019-04-30T02:49:32.990Z,10.40
2019-04-30T02:52:04.114Z,10.40
2019-04-30T02:54:36.502Z,10.40
2019-04-30T02:57:12.204Z,10.50
2019-04-30T03:00:02.091Z,10.40
2019-04-30T03:02:39.143Z,10.40
2019-04-30T03:08:00.568Z,10.40
2019-04-30T03:10:30.948Z,10.40
2019-04-30T03:13:01.085Z,10.40
2019-04-30T03:15:31.375Z,10.40
2019-04-30T03:18:15.351Z,10.40
2019-04-30T03:20:53.111Z,10.40
2019-04-30T03:23:23.275Z,10.50
2019-04-30T03:25:53.594Z,10.50
2019-04-30T03:28:25.280Z,10.60
2019-04-30T03:30:57.649Z,10.50
2019-04-30T03:33:32.137Z,10.60
2019-04-30T03:36:02.143Z,10.60
2019-04-30T03:38:34.211Z,10.60
2019-04-30T03:41:05.900Z,10.60
2019-04-30T03:43:36.325Z,10.60
2019-04-30T03:46:09.920Z,10.60
2019-04-30T03:48:40.876Z,10.60
2019-04-30T03:51:11.031Z,10.60
2019-04-30T03:53:42.892Z,10.60
2019-04-30T03:56:13.182Z,10.60
2019-04-30T03:58:43.407Z,10.50
2019-04-30T04:01:19.609Z,10.50
2019-04-30T04:04:10.155Z,10.40
2019-04-30T04:06:44.961Z,10.30
2019-04-30T04:09:23.701Z,10.30
2019-04-30T04:11:53.831Z,10.30
2019-04-30T04:14:24.158Z,10.20
2019-04-30T04:17:02.983Z,10.20
2019-04-30T04:19:35.868Z,10.20
2019-04-30T04:22:11.927Z,10.20
2019-04-30T04:24:44.300Z,10.20
2019-04-30T04:27:14.530Z,10.20
2019-04-30T04:29:44.645Z,10.20
2019-04-30T04:32:20.222Z,10.10
2019-04-30T04:34:50.061Z,10.10
2019-04-30T04:37:20.367Z,10.10
2019-04-30T04:39:50.860Z,10.20
2019-04-30T04:42:20.991Z,10.10
2019-04-30T04:44:53.033Z,10.00
2019-04-30T04:47:23.196Z,10.00
2019-04-30T04:49:54.115Z,10.10
2019-04-30T04:52:24.462Z,10.10
2019-04-30T04:54:54.555Z,10.10
2019-04-30T04:57:24.698Z,10.20
2019-04-30T04:59:56.765Z,10.10
2019-04-30T05:02:32.124Z,10.10
2019-04-30T05:05:00.289Z,10.20
2019-04-30T05:07:30.514Z,10.20
2019-04-30T05:10:01.043Z,10.30
2019-04-30T05:12:31.473Z,10.20
2019-04-30T05:15:01.605Z,10.20
2019-04-30T05:17:32.076Z,10.10
2019-04-30T05:20:02.558Z,10.10
2019-04-30T05:22:33.193Z,10.10
2019-04-30T05:25:04.351Z,10.20
2019-04-30T05:27:34.552Z,10.10
2019-04-30T05:30:07.038Z,10.10
2019-04-30T05:32:39.167Z,10.10
2019-04-30T05:35:12.883Z,10.10
2019-04-30T05:37:44.569Z,10.20
2019-04-30T05:40:15.182Z,10.20
2019-04-30T05:42:49.626Z,10.30
2019-04-30T05:45:21.571Z,10.30
2019-04-30T05:47:51.891Z,10.30
2019-04-30T05:50:22.016Z,10.40
2019-04-30T05:52:52.253Z,10.40
2019-04-30T05:55:22.574Z,10.50
2019-04-30T05:57:56.178Z,10.60
2019-04-30T06:00:24.791Z,10.70
2019-04-30T06:02:56.036Z,10.70
2019-04-30T06:05:26.235Z,10.70
2019-04-30T06:07:59.327Z,10.80
2019-04-30T06:10:31.228Z,10.80
2019-04-30T06:13:18.997Z,10.80
2019-04-30T06:16:06.255Z,10.90
2019-04-30T06:18:42.085Z,11.00
2019-04-30T06:21:11.310Z,11.00
2019-04-30T06:23:41.375Z,11.10
2019-04-30T06:26:14.166Z,11.10
2019-04-30T06:28:44.417Z,11.20
2019-04-30T06:31:14.629Z,11.20
2019-04-30T06:33:45.378Z,11.30
2019-04-30T06:36:34.856Z,11.30
2019-04-30T06:39:11.148Z,11.40
2019-04-30T06:41:44.735Z,11.40
2019-04-30T06:44:19.535Z,11.60
2019-04-30T06:46:51.565Z,11.60
2019-04-30T06:49:23.283Z,11.70
2019-04-30T06:51:55.155Z,11.70
2019-04-30T06:54:28.742Z,11.80
2019-04-30T06:56:59.649Z,11.80
2019-04-30T06:59:34.095Z,11.90
2019-04-30T07:02:05.852Z,12.00
2019-04-30T07:04:36.205Z,12.10
2019-04-30T07:07:06.410Z,12.10
2019-04-30T07:09:51.466Z,12.20
2019-04-30T07:12:27.869Z,12.30
2019-04-30T07:14:55.396Z,12.30
2019-04-30T07:17:25.496Z,12.40
2019-04-30T07:19:56.937Z,12.50
2019-04-30T07:22:39.407Z,12.50
2019-04-30T07:25:01.030Z,12.60
2019-04-30T07:27:32.416Z,12.70
2019-04-30T07:30:03.601Z,12.80
2019-04-30T07:32:34.036Z,12.80
2019-04-30T07:35:06.641Z,12.90
2019-04-30T07:37:40.559Z,13.00
2019-04-30T07:40:10.696Z,13.10
2019-04-30T07:42:44.986Z,13.20
2019-04-30T07:45:19.401Z,13.20
2019-04-30T07:47:50.249Z,13.30
2019-04-30T07:50:22.627Z,13.40
2019-04-30T07:53:04.551Z,13.60
2019-04-30T07:55:26.853Z,13.60
2019-04-30T07:57:59.005Z,13.70
2019-04-30T08:00:30.962Z,13.80
2019-04-30T08:03:20.484Z,13.90
2019-04-30T08:05:53.223Z,14.00
2019-04-30T08:08:25.653Z,14.10
2019-04-30T08:10:55.442Z,14.30
2019-04-30T08:13:26.256Z,14.40
2019-04-30T08:15:59.669Z,14.60
2019-04-30T08:18:30.103Z,14.70
2019-04-30T08:21:00.951Z,14.80
2019-04-30T08:23:36.839Z,14.90
2019-04-30T08:26:05.903Z,15.00
2019-04-30T08:28:36.223Z,15.00
2019-04-30T08:31:06.522Z,15.10
2019-04-30T08:41:50.432Z,15.40
2019-04-30T08:44:21.248Z,15.50
2019-04-30T08:46:53.418Z,15.60
2019-04-30T08:49:24.003Z,15.80
2019-04-30T08:51:54.712Z,16.00
2019-04-30T08:54:24.802Z,16.10
2019-04-30T08:56:55.034Z,16.30
2019-04-30T08:59:25.149Z,16.40
2019-04-30T09:01:55.797Z,16.50
2019-04-30T09:04:29.121Z,16.70
2019-04-30T09:06:59.952Z,16.80
2019-04-30T09:09:30.183Z,16.80
2019-04-30T09:12:00.395Z,17.00
2019-04-30T09:14:30.603Z,17.00
2019-04-30T09:17:03.793Z,17.10
2019-04-30T09:19:33.945Z,17.20
2019-04-30T09:22:11.055Z,17.40
2019-04-30T09:24:35.830Z,17.60
2019-04-30T09:27:06.098Z,17.70
2019-04-30T09:29:39.151Z,17.80
2019-04-30T09:32:09.508Z,17.80
2019-04-30T09:34:40.449Z,17.80
2019-04-30T09:37:11.459Z,18.00
2019-04-30T09:39:44.956Z,18.00
2019-04-30T09:42:15.619Z,18.10
2019-04-30T09:44:45.918Z,18.20
2019-04-30T09:47:16.144Z,18.30
2019-04-30T09:49:46.155Z,18.40
2019-04-30T09:52:16.958Z,18.50
2019-04-30T09:54:50.100Z,18.60
2019-04-30T09:57:20.045Z,18.80
2019-04-30T09:59:50.208Z,19.10
2019-04-30T10:02:20.341Z,19.20
2019-04-30T10:04:50.847Z,19.30
2019-04-30T10:07:21.528Z,19.20
2019-04-30T10:09:51.724Z,19.20
2019-04-30T10:12:21.981Z,19.30
2019-04-30T10:14:52.176Z,19.40
2019-04-30T10:17:29.970Z,19.60
2019-04-30T10:20:00.541Z,19.70
2019-04-30T10:22:31.273Z,19.80
2019-04-30T10:25:01.506Z,19.90
2019-04-30T10:27:31.816Z,20.00
2019-04-30T10:30:02.332Z,19.90
2019-04-30T10:32:34.424Z,20.00
2019-04-30T10:35:06.501Z,20.00
2019-04-30T10:37:38.596Z,20.00
2019-04-30T10:40:10.403Z,20.10
2019-04-30T10:42:40.677Z,20.20
2019-04-30T10:45:11.065Z,20.30
2019-04-30T10:47:41.913Z,20.30
2019-04-30T10:50:13.731Z,20.20
2019-04-30T10:52:44.108Z,20.30
2019-04-30T10:55:18.628Z,20.40
2019-04-30T10:57:50.567Z,20.60
2019-04-30T11:00:23.892Z,20.80
2019-04-30T11:02:53.393Z,20.90
2019-04-30T11:05:23.934Z,21.00
2019-04-30T11:07:54.023Z,21.10
2019-04-30T11:10:25.340Z,21.20
2019-04-30T11:12:55.576Z,21.20
2019-04-30T11:15:25.833Z,21.40
2019-04-30T11:17:56.529Z,21.40
2019-04-30T11:20:27.152Z,21.50
2019-04-30T11:22:57.694Z,21.50
2019-04-30T11:25:30.739Z,21.50
2019-04-30T11:28:00.076Z,21.50
2019-04-30T11:30:33.590Z,21.60
2019-04-30T11:33:03.264Z,21.60
2019-04-30T11:35:33.776Z,21.80
2019-04-30T11:38:05.763Z,21.90
2019-04-30T11:40:37.969Z,22.00
2019-04-30T11:43:08.179Z,21.90
2019-04-30T11:45:58.675Z,22.00
2019-04-30T11:48:28.899Z,22.20
2019-04-30T11:50:59.564Z,22.10
2019-04-30T11:53:34.743Z,22.20
2019-04-30T11:56:24.082Z,22.30
2019-04-30T11:58:58.870Z,22.40
2019-04-30T12:01:32.955Z,22.40
2019-04-30T12:04:03.277Z,22.50
2019-04-30T12:06:34.527Z,22.60
2019-04-30T12:09:09.277Z,22.80
2019-04-30T12:11:42.628Z,22.90
2019-04-30T12:14:12.780Z,23.00
2019-04-30T12:16:43.103Z,22.90
2019-04-30T12:19:15.149Z,23.00
2019-04-30T12:21:45.367Z,23.20
2019-04-30T12:24:15.427Z,23.20
2019-04-30T12:26:45.747Z,23.30
2019-04-30T12:29:15.836Z,23.40
2019-04-30T12:31:46.195Z,23.40
2019-04-30T12:34:16.420Z,23.40
2019-04-30T12:36:46.541Z,23.20
2019-04-30T12:39:16.663Z,23.20
2019-04-30T12:41:48.814Z,23.20
2019-04-30T12:44:20.595Z,23.00
2019-04-30T12:46:50.797Z,23.00
2019-04-30T12:49:20.948Z,23.20
2019-04-30T12:51:59.225Z,23.30
2019-04-30T12:54:30.859Z,23.50
2019-04-30T12:57:10.954Z,23.70
2019-04-30T12:59:38.903Z,23.80
2019-04-30T13:02:10.183Z,23.60
2019-04-30T13:04:40.377Z,23.60
2019-04-30T13:07:12.871Z,23.70
2019-04-30T13:09:43.953Z,23.80
2019-04-30T13:12:15.128Z,24.00
2019-04-30T13:14:53.911Z,23.80
2019-04-30T13:17:17.982Z,23.70
2019-04-30T13:19:48.175Z,23.80
2019-04-30T13:22:18.975Z,23.80
2019-04-30T13:24:49.916Z,23.70
2019-04-30T13:27:22.381Z,23.70
2019-04-30T13:29:59.132Z,23.70
2019-04-30T13:32:32.861Z,23.70
2019-04-30T13:35:04.240Z,23.70
2019-04-30T13:37:39.004Z,23.70
2019-04-30T13:40:22.945Z,23.60
2019-04-30T13:42:54.488Z,23.50
2019-04-30T13:45:24.855Z,23.70
2019-04-30T13:47:58.872Z,23.70
2019-04-30T13:50:30.287Z,23.50
2019-04-30T13:53:00.636Z,23.50
2019-04-30T13:55:42.990Z,23.40
2019-04-30T13:58:05.795Z,23.10
2019-04-30T14:00:39.605Z,23.00
2019-04-30T14:03:19.116Z,23.00
2019-04-30T14:05:51.515Z,22.90
2019-04-30T14:08:22.506Z,22.80
2019-04-30T14:10:52.760Z,22.70
2019-04-30T14:13:23.625Z,22.70
2019-04-30T14:15:56.002Z,22.70
2019-04-30T14:18:30.835Z,22.70
2019-04-30T14:21:00.845Z,22.70
2019-04-30T14:23:30.059Z,22.70
2019-04-30T14:28:49.334Z,22.80
2019-04-30T14:31:20.851Z,22.90
2019-04-30T14:33:51.393Z,23.20
2019-04-30T14:36:21.722Z,23.10
2019-04-30T14:38:52.281Z,23.20
2019-04-30T14:41:22.857Z,23.20
2019-04-30T14:44:01.207Z,23.30
2019-04-30T14:46:36.742Z,23.20
2019-04-30T14:49:25.345Z,23.00
2019-04-30T14:51:59.433Z,22.90
2019-04-30T14:54:38.749Z,22.80
2019-04-30T14:57:16.559Z,22.70
2019-04-30T15:00:02.079Z,22.70
2019-04-30T15:02:42.490Z,22.60
2019-04-30T15:05:13.009Z,22.60
2019-04-30T15:07:44.702Z,22.60
2019-04-30T15:10:15.727Z,22.50
2019-04-30T15:12:45.882Z,22.50
2019-04-30T15:15:16.255Z,22.50
2019-04-30T15:17:50.590Z,22.30
2019-04-30T15:20:22.431Z,22.30
2019-04-30T15:22:58.655Z,22.30
2019-04-30T15:25:34.013Z,22.30
2019-04-30T15:28:00.789Z,22.30
2019-04-30T15:30:52.460Z,22.30
2019-04-30T15:33:36.259Z,22.30
2019-04-30T15:36:06.638Z,22.30
2019-04-30T15:38:54.840Z,22.20
2019-04-30T15:41:25.152Z,22.10
2019-04-30T15:43:56.984Z,21.90
2019-04-30T15:46:27.343Z,21.90
2019-04-30T15:48:57.438Z,21.90
2019-04-30T15:51:27.586Z,21.90
2019-04-30T15:53:57.812Z,21.90
2019-04-30T15:56:35.310Z,21.90
2019-04-30T15:59:08.869Z,21.90
2019-04-30T16:01:40.378Z,21.80
2019-04-30T16:04:14.498Z,21.80
2019-04-30T16:06:44.800Z,21.80
2019-04-30T16:09:22.599Z,21.80
2019-04-30T16:11:54.359Z,21.80
2019-04-30T16:14:26.008Z,21.90
2019-04-30T16:16:57.718Z,21.80
2019-04-30T16:19:29.331Z,21.70
2019-04-30T16:21:59.433Z,21.70
2019-04-30T16:24:29.567Z,21.60
2019-04-30T16:26:59.805Z,21.50
2019-04-30T16:29:30.100Z,21.50
2019-04-30T16:32:00.460Z,21.40
2019-04-30T16:34:30.760Z,21.40
2019-04-30T16:37:00.903Z,21.30
2019-04-30T16:39:31.312Z,21.30
2019-04-30T16:42:01.641Z,21.20
2019-04-30T16:44:32.779Z,21.20
2019-04-30T16:49:52.331Z,21.10
2019-04-30T16:52:22.595Z,21.00
2019-04-30T16:54:52.725Z,20.90
2019-04-30T16:57:23.020Z,20.90
2019-04-30T16:59:54.199Z,20.80
2019-04-30T17:02:29.257Z,20.70
2019-04-30T17:05:04.089Z,20.80
2019-04-30T17:07:41.991Z,20.80
2019-04-30T17:10:25.305Z,20.70
2019-04-30T17:13:03.420Z,20.70
2019-04-30T17:15:38.229Z,20.70
2019-04-30T17:18:11.889Z,20.60
2019-04-30T17:20:52.748Z,20.60
2019-04-30T17:23:22.885Z,20.50
2019-04-30T17:25:53.141Z,20.50
2019-04-30T17:28:23.395Z,20.50
2019-04-30T17:30:53.925Z,20.50
2019-04-30T17:33:25.177Z,20.40
2019-04-30T17:35:55.333Z,20.40
2019-04-30T17:38:25.936Z,20.40
2019-04-30T17:40:56.075Z,20.40
2019-04-30T17:43:26.384Z,20.30
2019-04-30T17:45:58.903Z,20.20
2019-04-30T17:48:31.046Z,20.20
2019-04-30T17:51:01.680Z,20.10
2019-04-30T17:53:33.538Z,20.10
2019-04-30T17:56:05.478Z,20.10
2019-04-30T17:58:35.617Z,20.00
2019-04-30T18:01:06.852Z,19.90
2019-04-30T18:03:38.759Z,19.90
2019-04-30T18:06:09.164Z,19.80
2019-04-30T18:08:39.758Z,19.80
2019-04-30T18:11:10.703Z,19.70
2019-04-30T18:13:41.066Z,19.70
2019-04-30T18:16:12.925Z,19.70
2019-04-30T18:18:51.232Z,19.60
2019-04-30T18:21:28.959Z,19.50
2019-04-30T18:24:08.556Z,19.40
2019-04-30T18:26:46.061Z,19.30
2019-04-30T18:29:16.901Z,19.20
2019-04-30T18:31:47.432Z,19.20
2019-04-30T18:34:19.348Z,19.00
2019-04-30T18:36:51.234Z,19.00
2019-04-30T18:39:21.562Z,18.90
2019-04-30T18:41:52.001Z,18.90
2019-04-30T18:44:23.677Z,18.80
2019-04-30T18:46:53.977Z,18.70
2019-04-30T18:49:26.073Z,18.60
2019-04-30T18:51:56.398Z,18.50
2019-04-30T18:54:28.602Z,18.50
2019-04-30T18:56:59.190Z,18.50
2019-04-30T18:59:29.196Z,18.40
2019-04-30T19:01:59.321Z,18.40
2019-04-30T19:04:30.084Z,18.40
2019-04-30T19:07:02.023Z,18.50
2019-04-30T19:09:43.229Z,18.40
2019-04-30T19:12:15.091Z,18.40
2019-04-30T19:14:52.947Z,18.40
2019-04-30T19:17:29.389Z,18.30
2019-04-30T19:20:13.370Z,18.30
2019-04-30T19:22:43.644Z,18.20
2019-04-30T19:25:14.254Z,18.20
2019-04-30T19:27:44.480Z,18.10
2019-04-30T19:30:15.016Z,18.10
2019-04-30T19:32:45.338Z,18.10
2019-04-30T19:35:15.666Z,18.00
2019-04-30T19:37:45.996Z,17.90
2019-04-30T19:40:18.882Z,17.90
2019-04-30T19:42:50.869Z,18.00
2019-04-30T19:45:20.456Z,17.90
2019-04-30T19:47:50.683Z,17.90
2019-04-30T19:50:20.867Z,17.90
2019-04-30T19:52:51.235Z,17.90
2019-04-30T19:55:21.561Z,17.90
2019-04-30T19:57:51.685Z,17.90
2019-04-30T20:00:24.339Z,17.90
2019-04-30T20:02:59.904Z,17.80
2019-04-30T20:05:29.319Z,17.90
2019-04-30T20:08:01.355Z,17.80
2019-04-30T20:10:40.413Z,17.80
2019-04-30T20:13:10.944Z,17.70
2019-04-30T20:15:41.500Z,17.70
2019-04-30T20:18:12.220Z,17.70
2019-04-30T20:20:44.030Z,17.60
2019-04-30T20:23:14.165Z,17.60
2019-04-30T20:25:44.305Z,17.60
2019-04-30T20:28:14.550Z,17.60
2019-04-30T20:30:45.100Z,17.60
2019-04-30T20:33:15.307Z,17.60
2019-04-30T20:35:45.635Z,17.50
2019-04-30T20:38:20.733Z,17.50
2019-04-30T20:41:00.284Z,17.40
2019-04-30T20:43:25.718Z,17.40
2019-04-30T20:45:56.053Z,17.40
2019-04-30T20:48:26.278Z,17.40
2019-04-30T20:50:56.498Z,17.30
2019-04-30T20:53:26.699Z,17.30
2019-04-30T20:55:56.866Z,17.30
2019-04-30T20:58:26.850Z,17.20
2019-04-30T21:01:03.932Z,17.10
2019-04-30T21:03:29.536Z,17.00
2019-04-30T21:06:00.563Z,16.90
2019-04-30T21:08:32.176Z,17.00
2019-04-30T21:11:02.338Z,17.00
2019-04-30T21:13:32.786Z,17.00
2019-04-30T21:16:04.528Z,17.00
2019-04-30T21:18:34.659Z,16.90
2019-04-30T21:21:04.800Z,16.90
2019-04-30T21:23:35.111Z,16.80
2019-04-30T21:26:05.227Z,16.70
2019-04-30T21:28:35.733Z,16.80
2019-04-30T21:31:23.828Z,16.80
2019-04-30T21:33:58.132Z,16.80
2019-04-30T21:36:28.510Z,16.70
2019-04-30T21:38:59.141Z,16.60
2019-04-30T21:41:29.785Z,16.60
2019-04-30T21:44:00.301Z,16.50
2019-04-30T21:46:30.463Z,16.50
2019-04-30T21:49:00.647Z,16.40
2019-04-30T21:51:32.411Z,16.20
2019-04-30T21:54:02.501Z,16.30
2019-04-30T21:56:35.417Z,16.30
2019-04-30T21:59:05.743Z,16.30
2019-04-30T22:01:36.080Z,16.20
2019-04-30T22:04:06.273Z,16.20
2019-04-30T22:06:36.392Z,16.20
2019-04-30T22:09:09.650Z,16.20
2019-04-30T22:11:41.270Z,16.20
2019-04-30T22:14:11.905Z,16.30
2019-04-30T22:16:42.006Z,16.20
2019-04-30T22:19:12.459Z,16.30
2019-04-30T22:21:44.016Z,16.30
2019-04-30T22:24:14.649Z,16.30
2019-04-30T22:26:45.281Z,16.20
2019-04-30T22:29:15.484Z,16.20
2019-04-30T22:31:45.809Z,16.10
2019-04-30T22:34:16.032Z,15.90
2019-04-30T22:36:48.843Z,15.90
2019-04-30T22:39:20.792Z,15.90
2019-04-30T22:41:51.141Z,15.90
2019-04-30T22:44:21.671Z,15.90
2019-04-30T22:46:52.278Z,15.90
2019-04-30T22:49:23.937Z,15.90
2019-04-30T22:51:54.186Z,15.90
2019-04-30T22:54:24.392Z,15.80
2019-04-30T22:56:54.624Z,15.80
2019-04-30T22:59:26.395Z,15.70
2019-04-30T23:02:01.333Z,15.70
2019-04-30T23:04:39.317Z,15.70
2019-04-30T23:07:11.272Z,15.60
2019-04-30T23:09:41.502Z,15.50
2019-04-30T23:12:11.751Z,15.50
2019-04-30T23:14:43.524Z,15.60
2019-04-30T23:17:13.711Z,15.50
2019-04-30T23:19:49.329Z,15.50
2019-04-30T23:22:15.691Z,15.40
2019-04-30T23:24:45.833Z,15.30
2019-04-30T23:27:15.867Z,15.20
2019-04-30T23:29:46.053Z,15.00
2019-04-30T23:32:16.190Z,14.90
2019-04-30T23:34:46.384Z,14.80
2019-04-30T23:37:16.770Z,14.90
2019-04-30T23:39:46.899Z,14.90
2019-04-30T23:42:17.088Z,14.90
2019-04-30T23:44:47.641Z,14.90
2019-04-30T23:47:17.860Z,14.80
2019-04-30T23:49:50.042Z,14.80
2019-04-30T23:52:20.371Z,14.80
2019-04-30T23:54:54.485Z,14.70
2019-04-30T23:57:24.607Z,14.60
2019-04-30T23:59:54.760Z,14.60
